Time;durP1;ratioP1;P1;durP2;ratioP2;P2;SDS_P1;SDS_P2;PMS_P1;PMS_P2;Temp;Humidity;BMP_temperature;BMP_pressure;BME280_temperature;BME280_humidity;BME280_pressure;Samples;Min_cycle;Max_cycle;Signal;HPM_P1;HPM_P2
2024/04/14 00:02:17;;;;;;;0.77;0.70;;;19.50;92.10;;;;;;5384484;26;20454;-88
2024/04/14 00:04:48;;;;;;;0.65;0.60;;;19.50;94.20;;;;;;5493903;26;22171;-91
2024/04/14 00:07:16;;;;;;;0.70;0.63;;;19.60;99.90;;;;;;5447586;26;20010;-90
2024/04/14 00:09:42;;;;;;;1.13;0.55;;;19.50;92.50;;;;;;5415450;26;20061;-90
2024/04/14 00:12:07;;;;;;;0.82;0.70;;;19.50;92.80;;;;;;5412281;26;20438;-91
2024/04/14 00:14:33;;;;;;;0.60;0.60;;;19.50;93.70;;;;;;5473587;26;20022;-91
2024/04/14 00:16:58;;;;;;;0.55;0.50;;;19.50;94.00;;;;;;5421177;26;20484;-90
2024/04/14 00:19:24;;;;;;;1.00;0.70;;;19.50;94.20;;;;;;5442541;26;20019;-90
2024/04/14 00:21:49;;;;;;;0.50;0.50;;;19.50;94.50;;;;;;5429251;26;20091;-89
2024/04/14 00:24:16;;;;;;;0.80;0.60;;;19.40;95.00;;;;;;5383346;26;20448;-89
2024/04/14 00:26:41;;;;;;;0.60;0.60;;;19.40;96.10;;;;;;5387654;26;20010;-89
2024/04/14 00:29:08;;;;;;;0.70;0.60;;;;;;;;;;5441927;26;20019;-90
2024/04/14 00:31:33;;;;;;;0.70;0.70;;;19.30;75.60;;;;;;5442745;26;20505;-86
2024/04/14 00:33:59;;;;;;;0.65;0.60;;;19.30;76.50;;;;;;5443773;26;20019;-88
2024/04/14 00:36:24;;;;;;;0.63;0.63;;;19.30;76.40;;;;;;5439639;26;20010;-86
2024/04/14 00:38:50;;;;;;;0.55;0.52;;;19.40;77.00;;;;;;5437541;26;20014;-86
2024/04/14 00:41:15;;;;;;;0.50;0.50;;;19.40;77.20;;;;;;5414173;26;20004;-88
2024/04/14 00:43:41;;;;;;;1.02;0.70;;;19.40;77.30;;;;;;5443153;26;19999;-88
2024/04/14 00:46:07;;;;;;;0.95;0.70;;;19.40;77.30;;;;;;5437925;26;20079;-87
2024/04/14 00:48:32;;;;;;;0.50;0.50;;;19.30;77.10;;;;;;5411449;26;20079;-88
2024/04/14 00:50:58;;;;;;;0.63;0.63;;;19.30;77.90;;;;;;5415572;26;20002;-88
2024/04/14 00:53:24;;;;;;;0.70;0.70;;;19.30;77.80;;;;;;5388122;26;20421;-88
2024/04/14 00:55:49;;;;;;;0.60;0.60;;;19.30;79.00;;;;;;5378502;26;20017;-85
2024/04/14 00:58:15;;;;;;;0.50;0.30;;;19.30;79.00;;;;;;5381785;26;20360;-85
2024/04/14 01:00:40;;;;;;;0.40;0.40;;;19.30;78.60;;;;;;5411766;26;20004;-86
2024/04/14 01:03:06;;;;;;;0.63;0.63;;;19.30;78.20;;;;;;5413286;26;20011;-86
2024/04/14 01:05:31;;;;;;;0.82;0.50;;;19.30;78.90;;;;;;5436243;26;20522;-86
2024/04/14 01:07:57;;;;;;;0.40;0.40;;;19.30;79.10;;;;;;5381730;26;20002;-86
2024/04/14 01:10:23;;;;;;;1.80;0.50;;;19.30;78.90;;;;;;5412620;26;20031;-87
2024/04/14 01:12:48;;;;;;;0.77;0.40;;;19.30;79.20;;;;;;5382766;26;20331;-86
2024/04/14 01:15:14;;;;;;;0.60;0.60;;;19.30;80.10;;;;;;5383245;26;20022;-87
2024/04/14 01:17:40;;;;;;;0.47;0.47;;;19.30;79.00;;;;;;5411504;26;19999;-89
2024/04/14 01:20:06;;;;;;;0.90;0.60;;;19.30;79.90;;;;;;5441023;26;20003;-88
2024/04/14 01:22:31;;;;;;;0.93;0.35;;;19.30;79.40;;;;;;5412470;26;20047;-86
2024/04/14 01:25:03;;;;;;;0.70;0.50;;;19.30;78.80;;;;;;5445732;26;20003;-87
2024/04/14 01:27:29;;;;;;;0.30;0.30;;;19.30;78.70;;;;;;5412873;26;20490;-87
2024/04/14 01:29:54;;;;;;;0.40;0.40;;;19.30;78.50;;;;;;5417079;26;19999;-87
2024/04/14 01:32:20;;;;;;;0.50;0.50;;;19.30;78.40;;;;;;5412543;26;20109;-86
2024/04/14 01:34:45;;;;;;;0.50;0.50;;;19.30;78.80;;;;;;5439575;26;20046;-86
2024/04/14 01:37:11;;;;;;;0.85;0.35;;;19.30;78.90;;;;;;5502890;25;20443;-86
2024/04/14 01:39:37;;;;;;;0.30;0.30;;;19.30;78.80;;;;;;5415184;26;20082;-86
2024/04/14 01:42:03;;;;;;;0.50;0.50;;;19.30;78.90;;;;;;5442528;26;20769;-86
2024/04/14 01:44:29;;;;;;;0.40;0.40;;;19.30;79.00;;;;;;5443607;26;20035;-88
2024/04/14 01:46:54;;;;;;;0.65;0.50;;;19.30;79.00;;;;;;5443411;26;20019;-88
2024/04/14 01:49:20;;;;;;;0.63;0.40;;;19.20;78.80;;;;;;5417751;26;20334;-89
2024/04/14 01:51:45;;;;;;;0.20;0.20;;;19.30;79.10;;;;;;5417265;26;20019;-89
2024/04/14 01:54:12;;;;;;;0.43;0.30;;;19.20;79.60;;;;;;5415314;26;20039;-87
2024/04/14 01:56:38;;;;;;;1.08;0.40;;;19.30;78.70;;;;;;5443228;26;20003;-88
2024/04/14 01:59:04;;;;;;;0.40;0.40;;;19.20;78.40;;;;;;5447917;26;20007;-88
2024/04/14 02:01:29;;;;;;;0.20;0.20;;;19.20;77.90;;;;;;5441892;26;20025;-88
2024/04/14 02:03:55;;;;;;;0.20;0.20;;;19.20;78.00;;;;;;5447553;26;20014;-88
2024/04/14 02:06:20;;;;;;;0.50;0.30;;;19.20;78.00;;;;;;5475718;26;20010;-88
2024/04/14 02:08:46;;;;;;;0.38;0.30;;;19.20;77.30;;;;;;5411060;26;20048;-87
2024/04/14 02:11:12;;;;;;;0.30;0.30;;;19.20;77.20;;;;;;5414711;26;20105;-88
2024/04/14 02:13:37;;;;;;;0.25;0.25;;;19.20;77.20;;;;;;5390548;26;20013;-88
2024/04/14 02:16:03;;;;;;;0.32;0.32;;;19.20;77.00;;;;;;5416416;26;20042;-87
2024/04/14 02:18:29;;;;;;;0.38;0.38;;;19.20;77.10;;;;;;5414732;26;20003;-88
2024/04/14 02:20:54;;;;;;;0.30;0.30;;;19.10;76.70;;;;;;5415821;26;20008;-88
2024/04/14 02:23:20;;;;;;;0.38;0.38;;;19.10;76.80;;;;;;5414685;26;20011;-85
2024/04/14 02:25:58;;;;;;;0.25;0.25;;;19.20;76.50;;;;;;5437439;26;20000;-85
2024/04/14 02:28:23;;;;;;;0.30;0.30;;;19.10;77.40;;;;;;5413824;26;20003;-85
2024/04/14 02:30:49;;;;;;;0.30;0.30;;;19.10;76.60;;;;;;5439886;26;20420;-85
2024/04/14 02:33:15;;;;;;;0.20;0.20;;;19.10;76.60;;;;;;5444680;26;20003;-85
2024/04/14 02:35:41;;;;;;;0.65;0.52;;;19.10;76.50;;;;;;5442469;26;19995;-85
2024/04/14 02:38:07;;;;;;;0.40;0.28;;;19.20;76.50;;;;;;5426331;26;20071;-85
2024/04/14 02:40:32;;;;;;;0.30;0.30;;;19.10;76.40;;;;;;5382442;26;20440;-87
2024/04/14 02:42:58;;;;;;;0.30;0.30;;;19.10;76.50;;;;;;5444521;26;20016;-86
2024/04/14 02:45:24;;;;;;;0.40;0.30;;;19.10;76.70;;;;;;5472145;26;20021;-87
2024/04/14 02:47:49;;;;;;;0.30;0.30;;;19.10;76.50;;;;;;5383653;26;20014;-87
2024/04/14 02:50:15;;;;;;;0.30;0.30;;;19.10;76.50;;;;;;5384477;26;20035;-86
2024/04/14 02:52:40;;;;;;;0.73;0.20;;;19.10;76.50;;;;;;5380010;26;20425;-85
2024/04/14 02:55:06;;;;;;;0.20;0.20;;;19.10;76.40;;;;;;5452756;26;20048;-85
2024/04/14 02:57:32;;;;;;;0.25;0.25;;;19.10;76.70;;;;;;5442665;26;20055;-84
2024/04/14 02:59:58;;;;;;;0.40;0.38;;;19.10;76.50;;;;;;5439831;26;19998;-85
2024/04/14 03:02:23;;;;;;;0.30;0.28;;;19.10;76.70;;;;;;5444723;26;20002;-85
2024/04/14 03:04:49;;;;;;;0.30;0.30;;;19.10;77.60;;;;;;5439617;26;19998;-85
2024/04/14 03:07:14;;;;;;;0.40;0.40;;;19.10;76.90;;;;;;5415441;26;20456;-86
2024/04/14 03:09:40;;;;;;;0.22;0.22;;;19.10;76.50;;;;;;5410151;26;20340;-86
2024/04/14 03:12:06;;;;;;;0.30;0.30;;;19.10;76.50;;;;;;5435746;26;19999;-86
2024/04/14 03:14:31;;;;;;;0.30;0.30;;;19.10;76.50;;;;;;5474765;26;20468;-86
2024/04/14 03:16:57;;;;;;;0.43;0.38;;;19.10;76.50;;;;;;5410662;26;20002;-85
2024/04/14 03:19:22;;;;;;;0.75;0.30;;;19.10;76.50;;;;;;5443666;26;20333;-83
2024/04/14 03:21:48;;;;;;;0.63;0.28;;;19.10;76.50;;;;;;5410425;26;20010;-85
2024/04/14 03:24:14;;;;;;;0.38;0.38;;;19.10;76.50;;;;;;5471604;26;20076;-85
2024/04/14 03:26:39;;;;;;;0.25;0.25;;;19.10;76.50;;;;;;5411836;26;20361;-86
2024/04/14 03:29:05;;;;;;;0.28;0.20;;;19.10;76.40;;;;;;5414009;26;20003;-86
2024/04/14 03:31:30;;;;;;;0.20;0.20;;;19.00;76.20;;;;;;5449199;26;20002;-91
2024/04/14 03:33:56;;;;;;;0.30;0.20;;;19.00;76.20;;;;;;5414222;26;19999;-90
2024/04/14 03:36:21;;;;;;;0.30;0.30;;;19.00;76.20;;;;;;5448007;26;20079;-91
2024/04/14 03:38:47;;;;;;;0.45;0.40;;;19.00;76.10;;;;;;5441921;26;20014;-87
2024/04/14 03:41:13;;;;;;;0.32;0.30;;;19.00;76.10;;;;;;5442340;26;20007;-87
2024/04/14 03:43:38;;;;;;;0.20;0.20;;;19.00;76.10;;;;;;5440924;26;20460;-87
2024/04/14 03:46:04;;;;;;;0.10;0.10;;;19.00;76.20;;;;;;5416468;26;20072;-89
2024/04/14 03:48:30;;;;;;;0.20;0.20;;;19.00;76.20;;;;;;5413309;26;20019;-87
2024/04/14 03:50:55;;;;;;;0.22;0.20;;;19.00;76.20;;;;;;5412765;26;20070;-86
2024/04/14 03:53:21;;;;;;;0.10;0.10;;;19.00;76.40;;;;;;5440864;26;20455;-86
2024/04/14 03:55:48;;;;;;;0.20;0.20;;;19.00;76.20;;;;;;5439466;26;20040;-86
2024/04/14 03:58:13;;;;;;;0.52;0.30;;;19.00;76.20;;;;;;5442877;26;20025;-88
2024/04/14 04:00:39;;;;;;;0.20;0.20;;;19.00;76.20;;;;;;5418129;26;20007;-88
2024/04/14 04:03:04;;;;;;;0.10;0.10;;;19.00;76.10;;;;;;5434634;26;19999;-83
2024/04/14 04:05:30;;;;;;;0.10;0.10;;;19.00;76.10;;;;;;5438725;26;20017;-82
2024/04/14 04:07:56;;;;;;;0.10;0.10;;;19.00;76.20;;;;;;5441437;26;19999;-83
2024/04/14 04:10:21;;;;;;;0.30;0.20;;;19.00;76.20;;;;;;5439313;26;20013;-83
2024/04/14 04:12:47;;;;;;;0.63;0.50;;;19.00;76.10;;;;;;5436860;26;20014;-83
2024/04/14 04:15:13;;;;;;;1.40;0.30;;;19.00;76.10;;;;;;5447185;26;20466;-83
2024/04/14 04:17:38;;;;;;;0.20;0.20;;;19.00;76.20;;;;;;5440271;26;20007;-83
2024/04/14 04:20:04;;;;;;;0.10;0.10;;;19.00;76.20;;;;;;5437480;26;19996;-83
2024/04/14 04:22:30;;;;;;;0.10;0.10;;;19.00;77.00;;;;;;5442868;26;20013;-83
2024/04/14 04:24:55;;;;;;;0.98;0.10;;;19.00;76.20;;;;;;5442763;26;20000;-84
2024/04/14 04:27:21;;;;;;;0.22;0.20;;;19.00;76.20;;;;;;5414587;26;20043;-85
2024/04/14 04:29:47;;;;;;;0.50;0.20;;;19.00;76.20;;;;;;5441300;26;20047;-84
2024/04/14 04:32:17;;;;;;;0.10;0.10;;;19.00;76.30;;;;;;5441478;26;20003;-84
2024/04/14 04:34:44;;;;;;;0.30;0.30;;;19.00;76.30;;;;;;5438164;26;20011;-85
2024/04/14 04:37:09;;;;;;;0.30;0.20;;;19.00;77.00;;;;;;5471348;26;20007;-85
2024/04/14 04:39:35;;;;;;;0.32;0.20;;;19.00;76.30;;;;;;5443447;26;20021;-86
2024/04/14 04:42:00;;;;;;;0.10;0.10;;;19.00;76.50;;;;;;5439662;26;20025;-87
2024/04/14 04:44:26;;;;;;;0.30;0.30;;;19.00;76.30;;;;;;5416274;26;20013;-81
2024/04/14 04:46:51;;;;;;;0.10;0.10;;;19.00;76.40;;;;;;5445153;26;20007;-86
2024/04/14 04:49:17;;;;;;;0.57;0.20;;;19.00;76.20;;;;;;5416255;26;20451;-87
2024/04/14 04:51:43;;;;;;;0.40;0.20;;;19.00;76.30;;;;;;5443143;26;20468;-87
2024/04/14 04:54:08;;;;;;;0.47;0.20;;;19.00;76.30;;;;;;5414990;26;20045;-87
2024/04/14 04:56:34;;;;;;;0.30;0.30;;;19.00;76.30;;;;;;5410183;26;20095;-87
2024/04/14 04:59:00;;;;;;;0.32;0.28;;;18.90;76.30;;;;;;5436311;26;20510;-88
2024/04/14 05:01:25;;;;;;;0.22;0.13;;;18.90;76.20;;;;;;5415653;26;20017;-87
2024/04/14 05:03:51;;;;;;;0.20;0.20;;;19.00;76.40;;;;;;5441137;26;20079;-89
2024/04/14 05:06:16;;;;;;;0.30;0.20;;;18.90;76.30;;;;;;5418703;26;20029;-91
2024/04/14 05:08:42;;;;;;;0.20;0.15;;;19.00;76.40;;;;;;5390773;26;20067;-93
2024/04/14 05:11:07;;;;;;;0.30;0.25;;;18.90;76.30;;;;;;5428242;26;20012;-92
2024/04/14 05:13:33;;;;;;;0.20;0.17;;;19.00;76.50;;;;;;5448591;26;20436;-91
2024/04/14 05:15:58;;;;;;;0.10;0.10;;;18.90;76.40;;;;;;5408858;26;20077;-85
2024/04/14 05:18:24;;;;;;;0.08;0.00;;;18.90;76.70;;;;;;5439777;26;20889;-88
2024/04/14 05:20:50;;;;;;;0.10;0.10;;;18.90;76.60;;;;;;5435455;26;20000;-88
2024/04/14 05:23:15;;;;;;;0.10;0.10;;;18.90;76.70;;;;;;5446645;26;20010;-92
2024/04/14 05:25:41;;;;;;;0.30;0.22;;;18.90;76.60;;;;;;5422626;26;20007;-92
2024/04/14 05:28:06;;;;;;;0.30;0.15;;;19.00;76.70;;;;;;5447385;26;20002;-89
2024/04/14 05:30:32;;;;;;;0.30;0.20;;;19.00;76.70;;;;;;5444437;26;20023;-90
2024/04/14 05:32:58;;;;;;;0.32;0.25;;;19.00;76.90;;;;;;5392800;26;20014;-92
2024/04/14 05:35:23;;;;;;;0.30;0.22;;;18.90;76.60;;;;;;5418347;26;20359;-92
2024/04/14 05:37:49;;;;;;;0.25;0.25;;;18.90;76.60;;;;;;5447653;26;20046;-92
2024/04/14 05:40:15;;;;;;;0.20;0.20;;;19.00;76.60;;;;;;5418428;26;20007;-90
2024/04/14 05:42:40;;;;;;;0.20;0.20;;;18.90;76.60;;;;;;5415323;26;20021;-87
2024/04/14 05:45:09;;;;;;;0.10;0.10;;;19.00;76.80;;;;;;5443994;26;20022;-88
2024/04/14 05:47:35;;;;;;;0.20;0.10;;;18.90;76.90;;;;;;5443882;26;20466;-86
2024/04/14 05:50:01;;;;;;;0.70;0.30;;;18.90;76.90;;;;;;5442218;26;20010;-91
2024/04/14 05:52:26;;;;;;;0.22;0.15;;;19.00;76.90;;;;;;5446728;26;20348;-88
2024/04/14 05:54:52;;;;;;;0.10;0.10;;;19.00;76.80;;;;;;5442511;26;19995;-89
2024/04/14 05:57:17;;;;;;;0.28;0.10;;;19.00;76.90;;;;;;5437202;26;20014;-90
2024/04/14 05:59:46;;;;;;;0.90;0.30;;;19.00;77.00;;;;;;5485575;26;20015;-91
2024/04/14 06:02:12;;;;;;;0.30;0.20;;;19.00;77.20;;;;;;5477357;26;20006;-91
2024/04/14 06:04:37;;;;;;;0.20;0.20;;;18.90;77.10;;;;;;5446238;26;20019;-86
2024/04/14 06:07:03;;;;;;;3.38;0.20;;;18.90;77.20;;;;;;5417076;26;20079;-88
2024/04/14 06:09:29;;;;;;;0.20;0.17;;;19.00;77.30;;;;;;5438924;26;20488;-90
2024/04/14 06:11:55;;;;;;;0.30;0.20;;;19.00;77.20;;;;;;5444664;26;20006;-88
2024/04/14 06:14:22;;;;;;;0.30;0.20;;;19.00;77.50;;;;;;5411930;26;20358;-87
2024/04/14 06:16:47;;;;;;;0.10;0.10;;;19.00;77.00;;;;;;5440675;26;20051;-88
2024/04/14 06:19:13;;;;;;;1.55;0.20;;;19.00;77.40;;;;;;5385339;26;20456;-86
2024/04/14 06:21:38;;;;;;;0.43;0.30;;;19.00;77.10;;;;;;5439975;26;20049;-86
2024/04/14 06:24:05;;;;;;;0.77;0.40;;;19.00;78.00;;;;;;5414752;26;20435;-79
2024/04/14 06:26:30;;;;;;;6.43;0.85;;;19.00;78.50;;;;;;5442459;26;20003;-84
2024/04/14 06:28:56;;;;;;;1.80;0.20;;;19.10;78.90;;;;;;5438844;26;20015;-86
2024/04/14 06:31:22;;;;;;;0.52;0.30;;;19.10;79.30;;;;;;5472251;26;20011;-82
2024/04/14 06:33:47;;;;;;;0.63;0.32;;;19.10;79.00;;;;;;5410201;26;20014;-82
2024/04/14 06:36:13;;;;;;;0.52;0.30;;;19.10;78.80;;;;;;5441517;26;20011;-81
2024/04/14 06:38:43;;;;;;;0.25;0.20;;;19.10;79.30;;;;;;5412571;26;20014;-83
2024/04/14 06:41:10;;;;;;;1.02;0.40;;;19.10;79.10;;;;;;5413991;26;20003;-82
2024/04/14 06:43:35;;;;;;;1.23;0.30;;;19.20;79.10;;;;;;5440568;26;20034;-81
2024/04/14 06:46:01;;;;;;;0.98;0.20;;;19.20;79.30;;;;;;5445736;26;20003;-84
2024/04/14 06:48:27;;;;;;;0.95;0.30;;;19.20;79.10;;;;;;5441007;26;20017;-86
2024/04/14 06:50:52;;;;;;;0.50;0.47;;;19.30;78.90;;;;;;5383293;26;20014;-86
2024/04/14 06:53:20;;;;;;;0.73;0.20;;;19.30;79.00;;;;;;5443740;26;20017;-87
2024/04/14 06:55:47;;;;;;;0.68;0.30;;;19.30;78.90;;;;;;5373769;26;20007;-85
2024/04/14 06:58:13;;;;;;;1.05;0.25;;;19.30;79.20;;;;;;5441821;26;20022;-85
2024/04/14 07:00:39;;;;;;;0.60;0.30;;;19.30;79.00;;;;;;5437537;26;20318;-83
2024/04/14 07:03:04;;;;;;;0.70;0.40;;;19.30;79.30;;;;;;5443537;26;20461;-87
2024/04/14 07:05:30;;;;;;;1.50;0.30;;;19.20;79.50;;;;;;5410828;26;20014;-87
2024/04/14 07:07:55;;;;;;;2.10;0.40;;;19.30;79.30;;;;;;5440701;26;20002;-87
2024/04/14 07:10:21;;;;;;;1.23;0.45;;;19.30;79.00;;;;;;5444485;26;20003;-86
2024/04/14 07:12:47;;;;;;;2.70;0.40;;;19.20;79.60;;;;;;5411157;26;20725;-80
2024/04/14 07:15:13;;;;;;;1.38;0.20;;;19.20;79.90;;;;;;5413314;26;20003;-80
2024/04/14 07:17:39;;;;;;;1.33;0.52;;;19.20;80.00;;;;;;5413175;26;20513;-80
2024/04/14 07:20:05;;;;;;;0.30;0.30;;;19.10;80.10;;;;;;5405532;26;20007;-80
2024/04/14 07:22:31;;;;;;;3.13;0.55;;;19.10;80.20;;;;;;5445858;26;20082;-80
2024/04/14 07:24:58;;;;;;;1.00;0.45;;;19.10;80.10;;;;;;5413027;26;20003;-80
2024/04/14 07:27:23;;;;;;;3.40;0.30;;;19.10;80.70;;;;;;5411547;26;20024;-81
2024/04/14 07:29:49;;;;;;;4.03;0.73;;;19.10;80.30;;;;;;5437233;26;20437;-81
2024/04/14 07:32:15;;;;;;;3.22;0.30;;;19.10;80.00;;;;;;5405711;26;20015;-81
2024/04/14 07:34:41;;;;;;;1.08;0.40;;;19.10;80.20;;;;;;5407455;26;20087;-81
2024/04/14 07:37:07;;;;;;;1.48;0.30;;;19.10;80.10;;;;;;5439204;26;20003;-81
2024/04/14 07:39:32;;;;;;;2.28;0.38;;;19.10;79.90;;;;;;5434840;26;20007;-81
2024/04/14 07:42:00;;;;;;;1.42;0.30;;;19.10;79.70;;;;;;5375167;26;20006;-81
2024/04/14 07:44:26;;;;;;;0.93;0.30;;;19.10;79.60;;;;;;5434104;26;21250;-80
2024/04/14 07:46:51;;;;;;;0.95;0.40;;;19.10;79.40;;;;;;5434116;26;20003;-80
2024/04/14 07:49:17;;;;;;;0.90;0.20;;;19.10;79.30;;;;;;5396287;26;20007;-80
2024/04/14 07:51:43;;;;;;;0.20;0.20;;;19.10;79.20;;;;;;5399485;26;20019;-81
2024/04/14 07:54:08;;;;;;;0.88;0.30;;;19.10;79.20;;;;;;5437813;26;20007;-80
2024/04/14 07:56:34;;;;;;;3.53;0.40;;;19.10;79.10;;;;;;5435706;26;20046;-80
2024/04/14 07:58:59;;;;;;;0.40;0.40;;;19.10;79.10;;;;;;5407131;26;20002;-80
2024/04/14 08:01:25;;;;;;;0.30;0.20;;;19.10;79.00;;;;;;5472422;26;20329;-80
2024/04/14 08:03:50;;;;;;;0.85;0.20;;;19.10;78.90;;;;;;5441384;26;20463;-81
2024/04/14 08:06:17;;;;;;;0.32;0.25;;;19.10;78.70;;;;;;5410867;26;20505;-80
2024/04/14 08:08:42;;;;;;;0.30;0.13;;;19.10;78.80;;;;;;5410250;26;20022;-80
2024/04/14 08:11:08;;;;;;;0.80;0.40;;;19.10;79.50;;;;;;5414277;26;20022;-81
2024/04/14 08:13:34;;;;;;;1.15;0.50;;;19.10;78.70;;;;;;5438952;26;20007;-80
2024/04/14 08:15:59;;;;;;;0.40;0.30;;;19.10;78.70;;;;;;5437294;26;20003;-82
2024/04/14 08:18:25;;;;;;;2.33;0.30;;;19.20;78.80;;;;;;5441177;26;20089;-81
2024/04/14 08:20:58;;;;;;;0.40;0.40;;;19.20;78.40;;;;;;5435569;26;20015;-81
2024/04/14 08:23:24;;;;;;;1.27;0.40;;;19.30;78.20;;;;;;5441408;26;20018;-81
2024/04/14 08:25:49;;;;;;;4.63;0.70;;;19.10;72.70;;;;;;5409224;26;20003;-81
2024/04/14 08:28:15;;;;;;;2.75;0.93;;;18.80;70.00;;;;;;5442100;26;20441;-81
2024/04/14 08:30:40;;;;;;;2.47;0.68;;;18.60;68.90;;;;;;5409127;26;20003;-79
2024/04/14 08:33:06;;;;;;;1.15;0.52;;;18.50;68.30;;;;;;5441266;26;20505;-80
2024/04/14 08:35:32;;;;;;;2.63;0.80;;;18.30;67.40;;;;;;5409775;26;20017;-81
2024/04/14 08:37:57;;;;;;;1.95;0.73;;;18.30;66.30;;;;;;5469158;26;20014;-81
2024/04/14 08:40:23;;;;;;;1.63;0.70;;;18.20;66.30;;;;;;5415370;26;20104;-80
2024/04/14 08:42:48;;;;;;;1.85;0.70;;;18.20;66.60;;;;;;5434140;26;20003;-80
2024/04/14 08:45:14;;;;;;;2.08;0.90;;;18.20;66.30;;;;;;5438779;26;19999;-80
2024/04/14 08:47:40;;;;;;;3.63;0.95;;;18.20;67.00;;;;;;5405366;26;20018;-78
2024/04/14 08:50:07;;;;;;;3.08;0.85;;;18.20;66.20;;;;;;5408293;26;20025;-79
2024/04/14 08:52:33;;;;;;;2.58;0.68;;;18.30;66.60;;;;;;5413922;26;19998;-84
2024/04/14 08:54:59;;;;;;;1.95;0.80;;;18.30;66.70;;;;;;5407497;26;20014;-82
2024/04/14 08:57:26;;;;;;;2.20;0.90;;;18.30;65.70;;;;;;5408947;26;20441;-80
2024/04/14 08:59:52;;;;;;;4.03;0.80;;;18.30;65.90;;;;;;5379627;26;20007;-78
2024/04/14 09:02:17;;;;;;;0.88;0.50;;;18.20;66.30;;;;;;5409786;26;20501;-78
2024/04/14 09:04:45;;;;;;;1.95;0.52;;;18.20;66.00;;;;;;5378305;26;20007;-78
2024/04/14 09:07:10;;;;;;;3.05;0.80;;;18.20;65.40;;;;;;5439258;26;20336;-80
2024/04/14 09:09:36;;;;;;;1.73;0.63;;;18.20;67.70;;;;;;5380593;26;20018;-78
2024/04/14 09:12:02;;;;;;;1.20;0.70;;;18.20;65.40;;;;;;5436628;26;20033;-81
2024/04/14 09:14:27;;;;;;;2.03;0.70;;;18.20;65.00;;;;;;5411088;26;20007;-81
2024/04/14 09:16:53;;;;;;;2.38;0.63;;;18.20;64.90;;;;;;5419052;26;20014;-78
2024/04/14 09:19:19;;;;;;;1.88;0.77;;;18.30;66.30;;;;;;5383182;26;20075;-79
2024/04/14 09:21:45;;;;;;;1.50;0.40;;;18.40;67.20;;;;;;5436166;26;20684;-79
2024/04/14 09:24:11;;;;;;;2.83;0.57;;;18.50;67.80;;;;;;5411234;26;20444;-78
2024/04/14 09:26:36;;;;;;;1.50;0.47;;;18.70;68.30;;;;;;5411859;26;20017;-78
2024/04/14 09:29:03;;;;;;;1.10;0.38;;;18.80;67.70;;;;;;5380510;26;20493;-78
2024/04/14 09:31:28;;;;;;;1.55;0.52;;;19.00;67.50;;;;;;5410843;26;20075;-79
2024/04/14 09:33:54;;;;;;;2.25;0.47;;;19.10;67.60;;;;;;5412334;26;20014;-79
2024/04/14 09:36:26;;;;;;;1.42;0.50;;;19.20;68.00;;;;;;5405785;26;20003;-79
2024/04/14 09:38:55;;;;;;;1.23;0.50;;;19.20;68.90;;;;;;5410446;26;20480;-79
2024/04/14 09:41:20;;;;;;;1.00;0.30;;;19.20;69.20;;;;;;5437837;26;20031;-79
2024/04/14 09:43:46;;;;;;;0.77;0.50;;;19.30;69.50;;;;;;5437062;26;20012;-79
2024/04/14 09:46:13;;;;;;;1.60;0.47;;;19.40;69.60;;;;;;5383225;26;20007;-79
2024/04/14 09:48:39;;;;;;;1.80;0.60;;;19.40;69.60;;;;;;5406570;26;20046;-79
2024/04/14 09:51:05;;;;;;;0.90;0.60;;;19.50;69.70;;;;;;5407892;26;20003;-79
2024/04/14 09:53:31;;;;;;;1.48;0.60;;;19.50;69.80;;;;;;5413534;26;20014;-79
2024/04/14 09:55:58;;;;;;;1.10;0.50;;;19.60;69.60;;;;;;5439131;26;20011;-79
2024/04/14 09:58:24;;;;;;;2.58;0.70;;;19.60;69.60;;;;;;5444209;26;20079;-79
2024/04/14 10:00:50;;;;;;;0.68;0.40;;;19.70;69.90;;;;;;5472552;26;20054;-78
2024/04/14 10:03:15;;;;;;;1.00;0.63;;;19.70;69.90;;;;;;5432761;26;20003;-79
2024/04/14 10:05:41;;;;;;;1.50;0.57;;;19.80;70.10;;;;;;5440911;26;20012;-79
2024/04/14 10:08:07;;;;;;;0.55;0.30;;;19.80;70.10;;;;;;5380786;26;20010;-79
2024/04/14 10:10:33;;;;;;;3.05;0.52;;;19.80;70.20;;;;;;5445296;26;20003;-79
2024/04/14 10:12:59;;;;;;;1.13;0.60;;;19.80;70.40;;;;;;5443169;26;20007;-79
2024/04/14 10:15:24;;;;;;;0.80;0.40;;;19.90;70.30;;;;;;5412526;26;19994;-79
2024/04/14 10:18:07;;;;;;;0.80;0.45;;;19.90;70.30;;;;;;5496315;25;20003;-79
2024/04/14 10:20:40;;;;;;;0.73;0.40;;;19.90;70.30;;;;;;5450418;26;20018;-79
2024/04/14 10:23:06;;;;;;;0.95;0.43;;;20.00;70.30;;;;;;5443124;26;20025;-79
2024/04/14 10:25:31;;;;;;;0.60;0.50;;;20.00;70.30;;;;;;5412319;26;20003;-79
2024/04/14 10:27:57;;;;;;;0.60;0.50;;;20.00;70.20;;;;;;5434332;26;20018;-79
2024/04/14 10:30:24;;;;;;;1.17;0.47;;;20.10;70.30;;;;;;5442023;26;20002;-79
2024/04/14 10:33:04;;;;;;;1.17;0.50;;;20.10;70.40;;;;;;5414228;26;20007;-79
2024/04/14 10:35:30;;;;;;;0.73;0.50;;;20.10;70.50;;;;;;5472678;26;19995;-79
2024/04/14 10:37:55;;;;;;;0.55;0.30;;;20.10;70.30;;;;;;5440859;26;20014;-79
2024/04/14 10:40:22;;;;;;;0.70;0.30;;;20.20;70.40;;;;;;5451230;26;20451;-79
2024/04/14 10:42:47;;;;;;;0.65;0.50;;;20.20;70.30;;;;;;5443401;26;20344;-79
2024/04/14 10:45:22;;;;;;;1.00;0.40;;;20.20;70.30;;;;;;5435014;26;20480;-79
2024/04/14 10:47:48;;;;;;;0.95;0.40;;;20.20;70.40;;;;;;5472746;26;20055;-80
2024/04/14 10:50:13;;;;;;;1.65;0.60;;;20.20;70.60;;;;;;5386078;26;19995;-79
2024/04/14 10:52:39;;;;;;;1.23;1.13;;;20.10;70.50;;;;;;5441691;26;20017;-79
2024/04/14 10:55:05;;;;;;;3.15;2.28;;;19.90;70.90;;;;;;5412370;26;20543;-79
2024/04/14 10:57:30;;;;;;;3.97;3.28;;;19.80;70.00;;;;;;5439398;26;20003;-79
2024/04/14 10:59:56;;;;;;;9.65;5.20;;;19.80;69.20;;;;;;5437533;26;20015;-78
2024/04/14 11:02:21;;;;;;;11.38;6.00;;;19.70;69.30;;;;;;5409200;26;21141;-79
2024/04/14 11:04:47;;;;;;;8.20;5.18;;;;;;;;;;5408377;26;20093;-79
2024/04/14 11:07:13;;;;;;;9.02;5.05;;;19.90;99.90;;;;;;5437651;26;19995;-79
2024/04/14 11:09:39;;;;;;;12.95;4.88;;;19.70;96.60;;;;;;5379749;26;20438;-79
2024/04/14 11:12:05;;;;;;;9.40;5.10;;;;;;;;;;5381527;26;20463;-80
2024/04/14 11:14:30;;;;;;;5.20;3.75;;;19.60;98.20;;;;;;5410000;26;22633;-79
2024/04/14 11:16:56;;;;;;;4.10;2.38;;;19.60;97.80;;;;;;5410555;26;20003;-80
2024/04/14 11:19:21;;;;;;;4.50;2.70;;;19.50;96.80;;;;;;5443336;26;20071;-80
2024/04/14 11:21:48;;;;;;;8.38;4.70;;;19.40;97.20;;;;;;5440490;26;20476;-80
2024/04/14 11:24:13;;;;;;;4.25;3.75;;;19.40;96.50;;;;;;5439947;26;20010;-80
2024/04/14 11:26:42;;;;;;;12.15;8.93;;;19.30;96.40;;;;;;5408956;26;20014;-80
2024/04/14 11:29:08;;;;;;;19.35;12.20;;;19.30;96.20;;;;;;5438723;26;20002;-80
2024/04/14 11:31:36;;;;;;;23.08;16.60;;;19.30;96.10;;;;;;5446328;26;20045;-80
2024/04/14 11:34:02;;;;;;;17.95;13.30;;;19.20;95.50;;;;;;5443597;26;20485;-80
2024/04/14 11:36:32;;;;;;;17.15;12.05;;;19.30;95.50;;;;;;5442035;26;20003;-80
2024/04/14 11:38:58;;;;;;;23.73;16.92;;;19.30;95.40;;;;;;5402615;26;20021;-80
2024/04/14 11:41:23;;;;;;;23.20;16.40;;;19.30;95.90;;;;;;5500356;26;20006;-78
2024/04/14 11:43:49;;;;;;;28.08;19.27;;;19.40;96.10;;;;;;5409643;26;20080;-80
2024/04/14 11:46:14;;;;;;;25.88;16.55;;;19.40;95.50;;;;;;5378136;26;20010;-80
2024/04/14 11:48:40;;;;;;;38.33;23.42;;;19.50;95.20;;;;;;5439124;26;20003;-80
2024/04/14 11:51:06;;;;;;;34.67;21.83;;;19.50;95.70;;;;;;5433609;26;20105;-80
2024/04/14 11:53:31;;;;;;;33.30;21.08;;;19.50;95.90;;;;;;5411174;26;20042;-80
2024/04/14 11:55:57;;;;;;;29.17;20.50;;;19.50;95.80;;;;;;5438817;26;20002;-80
2024/04/14 11:58:25;;;;;;;29.42;20.38;;;19.50;95.60;;;;;;5501428;26;20011;-79
2024/04/14 12:00:51;;;;;;;35.10;23.73;;;19.50;95.60;;;;;;5383140;26;20025;-80
2024/04/14 12:03:16;;;;;;;38.45;25.88;;;19.50;95.80;;;;;;5412992;26;20441;-80
2024/04/14 12:05:42;;;;;;;37.33;26.50;;;19.50;95.30;;;;;;5432608;26;20014;-79
2024/04/14 12:08:08;;;;;;;34.45;23.85;;;19.40;95.50;;;;;;5380363;26;20605;-79
2024/04/14 12:10:33;;;;;;;37.47;22.92;;;19.60;95.40;;;;;;5414577;26;20007;-81
2024/04/14 12:12:59;;;;;;;28.55;19.58;;;19.70;95.50;;;;;;5380659;26;20022;-80
2024/04/14 12:15:24;;;;;;;22.73;17.27;;;19.70;95.70;;;;;;5438860;26;19995;-80
2024/04/14 12:17:50;;;;;;;22.48;16.17;;;19.70;95.80;;;;;;5434456;26;20545;-80
2024/04/14 12:20:16;;;;;;;22.45;14.85;;;19.70;96.00;;;;;;5493673;26;20000;-80
2024/04/14 12:22:41;;;;;;;20.10;12.50;;;19.70;96.10;;;;;;5384017;26;20006;-79
2024/04/14 12:25:07;;;;;;;16.33;12.05;;;19.60;95.70;;;;;;5410861;26;20044;-80
2024/04/14 12:27:33;;;;;;;15.88;9.95;;;19.60;95.30;;;;;;5438035;26;20073;-80
2024/04/14 12:29:58;;;;;;;11.38;8.48;;;19.60;95.00;;;;;;5436127;26;20010;-80
2024/04/14 12:32:24;;;;;;;11.35;8.07;;;19.60;95.30;;;;;;5436578;26;20064;-80
2024/04/14 12:34:50;;;;;;;11.70;7.40;;;19.60;95.60;;;;;;5441753;26;20014;-80
2024/04/14 12:37:15;;;;;;;8.60;6.53;;;19.60;95.50;;;;;;5496971;26;19995;-80
2024/04/14 12:39:41;;;;;;;7.15;6.13;;;19.60;95.60;;;;;;5439290;26;20017;-81